Terminal Aerodrome Forecast
Issued by NWS

Home | Current Version | Previous Version | Text Only | Print | Product List | Glossary On
Versions: 1 2 3 4 5 6 7 8 9 10 11 12 13 14 15 16 17 18 19 20 21 22 23 24 25 26 27 28 29 30 31 32 33 34 35 36 37 38 39 40 41 42 43 44 45 46 47 48 49 50
000
FTUS45 KBOU 301913 AAA
TAFBJC
TAF AMD
KBJC 301913Z 3019/3118 34008KT P6SM -RA SCT005 BKN010 OVC020
      TEMPO 3019/3021 3SM SHRA BR BKN005 OVC015
     FM302100 34012KT P6SM VCTS SCT015CB OVC030
      TEMPO 3021/3023 4SM -SHRA BKN015
     FM302300 34008KT P6SM VCSH SCT035 BKN060
     FM310300 27006KT P6SM SCT045 BKN080
     FM310900 34005KT P6SM VCFG SCT005
      TEMPO 3110/3114 1/2SM FG BKN005
     FM311500 34006KT P6SM SCT015 SCT080=

USA.gov is the U.S. government's official web portal to all federal, state and local government web resources and services.